sensor_id;sensor_type;location;lat;lon;timestamp;temperature;humidity
37242;DHT22;23135;51.078;12.108;2023-05-07T00:01:44;10.10;99.90
37242;DHT22;23135;51.078;12.108;2023-05-07T00:04:10;10.10;99.90
37242;DHT22;23135;51.078;12.108;2023-05-07T00:06:36;10.10;99.90
37242;DHT22;23135;51.078;12.108;2023-05-07T00:09:02;10.10;99.90
37242;DHT22;23135;51.078;12.108;2023-05-07T00:11:28;10.10;99.90
37242;DHT22;23135;51.078;12.108;2023-05-07T00:13:54;10.10;99.90
37242;DHT22;23135;51.078;12.108;2023-05-07T00:16:19;10.10;99.90
37242;DHT22;23135;51.078;12.108;2023-05-07T00:18:45;10.10;99.90
37242;DHT22;23135;51.078;12.108;2023-05-07T00:21:11;10.10;99.90
37242;DHT22;23135;51.078;12.108;2023-05-07T00:23:36;10.10;99.90
37242;DHT22;23135;51.078;12.108;2023-05-07T00:26:03;10.10;99.90
37242;DHT22;23135;51.078;12.108;2023-05-07T00:28:28;10.10;99.90
37242;DHT22;23135;51.078;12.108;2023-05-07T00:30:54;10.10;99.90
37242;DHT22;23135;51.078;12.108;2023-05-07T00:33:20;10.00;99.90
37242;DHT22;23135;51.078;12.108;2023-05-07T00:35:46;10.10;99.90
37242;DHT22;23135;51.078;12.108;2023-05-07T00:38:11;10.00;99.90
37242;DHT22;23135;51.078;12.108;2023-05-07T00:40:37;10.00;99.90
37242;DHT22;23135;51.078;12.108;2023-05-07T00:43:03;10.00;99.90
37242;DHT22;23135;51.078;12.108;2023-05-07T00:45:29;10.00;99.90
37242;DHT22;23135;51.078;12.108;2023-05-07T00:47:56;10.00;99.90
37242;DHT22;23135;51.078;12.108;2023-05-07T00:50:22;10.00;99.90
37242;DHT22;23135;51.078;12.108;2023-05-07T00:52:49;10.00;99.90
37242;DHT22;23135;51.078;12.108;2023-05-07T00:55:14;10.00;99.90
37242;DHT22;23135;51.078;12.108;2023-05-07T00:57:41;9.90;99.90
37242;DHT22;23135;51.078;12.108;2023-05-07T01:00:08;9.90;99.90
37242;DHT22;23135;51.078;12.108;2023-05-07T01:02:35;9.90;99.90
37242;DHT22;23135;51.078;12.108;2023-05-07T01:05:02;9.90;99.90
37242;DHT22;23135;51.078;12.108;2023-05-07T01:07:31;9.80;99.90
37242;DHT22;23135;51.078;12.108;2023-05-07T01:09:57;9.80;99.90
37242;DHT22;23135;51.078;12.108;2023-05-07T01:12:24;9.80;99.90
37242;DHT22;23135;51.078;12.108;2023-05-07T01:14:50;9.80;99.90
37242;DHT22;23135;51.078;12.108;2023-05-07T01:17:17;9.80;99.90
37242;DHT22;23135;51.078;12.108;2023-05-07T01:19:42;9.70;99.90
37242;DHT22;23135;51.078;12.108;2023-05-07T01:22:10;9.70;99.90
37242;DHT22;23135;51.078;12.108;2023-05-07T01:24:37;9.60;99.90
37242;DHT22;23135;51.078;12.108;2023-05-07T01:27:03;9.60;99.90
37242;DHT22;23135;51.078;12.108;2023-05-07T01:29:28;9.50;99.90
37242;DHT22;23135;51.078;12.108;2023-05-07T01:31:56;9.50;99.90
37242;DHT22;23135;51.078;12.108;2023-05-07T01:34:23;9.50;99.90
37242;DHT22;23135;51.078;12.108;2023-05-07T01:36:50;9.50;99.90
37242;DHT22;23135;51.078;12.108;2023-05-07T01:39:16;9.40;99.90
37242;DHT22;23135;51.078;12.108;2023-05-07T01:41:43;9.40;99.90
37242;DHT22;23135;51.078;12.108;2023-05-07T01:44:10;9.40;99.90
37242;DHT22;23135;51.078;12.108;2023-05-07T01:46:37;9.40;99.90
37242;DHT22;23135;51.078;12.108;2023-05-07T01:49:03;9.40;99.90
37242;DHT22;23135;51.078;12.108;2023-05-07T01:51:29;9.30;99.90
37242;DHT22;23135;51.078;12.108;2023-05-07T01:53:55;9.30;99.90
37242;DHT22;23135;51.078;12.108;2023-05-07T01:56:21;9.30;99.90
37242;DHT22;23135;51.078;12.108;2023-05-07T01:58:47;9.30;99.90
37242;DHT22;23135;51.078;12.108;2023-05-07T02:01:13;9.30;99.90
37242;DHT22;23135;51.078;12.108;2023-05-07T02:03:39;9.30;99.90
37242;DHT22;23135;51.078;12.108;2023-05-07T02:06:05;9.30;99.90
37242;DHT22;23135;51.078;12.108;2023-05-07T02:08:30;9.30;99.90
37242;DHT22;23135;51.078;12.108;2023-05-07T02:10:56;9.30;99.90
37242;DHT22;23135;51.078;12.108;2023-05-07T02:13:21;9.30;99.90
37242;DHT22;23135;51.078;12.108;2023-05-07T02:15:50;9.30;99.90
37242;DHT22;23135;51.078;12.108;2023-05-07T02:18:16;9.30;99.90
37242;DHT22;23135;51.078;12.108;2023-05-07T02:20:42;9.30;99.90
37242;DHT22;23135;51.078;12.108;2023-05-07T02:23:08;9.20;99.90
37242;DHT22;23135;51.078;12.108;2023-05-07T02:25:34;9.20;99.90
37242;DHT22;23135;51.078;12.108;2023-05-07T02:27:59;9.20;99.90
37242;DHT22;23135;51.078;12.108;2023-05-07T02:30:25;9.20;99.90
37242;DHT22;23135;51.078;12.108;2023-05-07T02:32:51;9.20;99.90
37242;DHT22;23135;51.078;12.108;2023-05-07T02:35:18;9.20;99.90
37242;DHT22;23135;51.078;12.108;2023-05-07T02:37:43;9.20;99.90
37242;DHT22;23135;51.078;12.108;2023-05-07T02:40:10;9.20;99.90
37242;DHT22;23135;51.078;12.108;2023-05-07T02:42:36;9.20;99.90
37242;DHT22;23135;51.078;12.108;2023-05-07T02:45:01;9.20;99.90
37242;DHT22;23135;51.078;12.108;2023-05-07T02:47:27;9.20;99.90
37242;DHT22;23135;51.078;12.108;2023-05-07T02:49:54;9.20;99.90
37242;DHT22;23135;51.078;12.108;2023-05-07T02:52:20;9.10;99.90
37242;DHT22;23135;51.078;12.108;2023-05-07T02:54:45;9.10;99.90
37242;DHT22;23135;51.078;12.108;2023-05-07T02:57:11;9.10;99.90
37242;DHT22;23135;51.078;12.108;2023-05-07T02:59:37;9.10;99.90
37242;DHT22;23135;51.078;12.108;2023-05-07T03:02:02;9.10;99.90
37242;DHT22;23135;51.078;12.108;2023-05-07T03:04:28;9.00;99.90
37242;DHT22;23135;51.078;12.108;2023-05-07T03:06:53;9.00;99.90
37242;DHT22;23135;51.078;12.108;2023-05-07T03:09:19;9.00;99.90
37242;DHT22;23135;51.078;12.108;2023-05-07T03:11:44;9.00;99.90
37242;DHT22;23135;51.078;12.108;2023-05-07T03:14:10;9.00;99.90
37242;DHT22;23135;51.078;12.108;2023-05-07T03:16:35;9.00;99.90
37242;DHT22;23135;51.078;12.108;2023-05-07T03:19:01;9.00;99.90
37242;DHT22;23135;51.078;12.108;2023-05-07T03:21:27;9.00;99.90
37242;DHT22;23135;51.078;12.108;2023-05-07T03:23:52;9.00;99.90
37242;DHT22;23135;51.078;12.108;2023-05-07T03:26:18;9.00;99.90
37242;DHT22;23135;51.078;12.108;2023-05-07T03:28:44;9.00;99.90
37242;DHT22;23135;51.078;12.108;2023-05-07T03:31:09;8.90;99.90
37242;DHT22;23135;51.078;12.108;2023-05-07T03:33:35;8.90;99.90
37242;DHT22;23135;51.078;12.108;2023-05-07T03:36:01;8.90;99.90
37242;DHT22;23135;51.078;12.108;2023-05-07T03:38:26;8.90;99.90
37242;DHT22;23135;51.078;12.108;2023-05-07T03:40:52;8.90;99.90
37242;DHT22;23135;51.078;12.108;2023-05-07T03:43:18;8.90;99.90
37242;DHT22;23135;51.078;12.108;2023-05-07T03:45:43;9.00;99.90
37242;DHT22;23135;51.078;12.108;2023-05-07T03:48:09;8.90;99.90
37242;DHT22;23135;51.078;12.108;2023-05-07T03:50:34;8.90;99.90
37242;DHT22;23135;51.078;12.108;2023-05-07T03:53:00;8.90;99.90
37242;DHT22;23135;51.078;12.108;2023-05-07T03:55:25;8.90;99.90
37242;DHT22;23135;51.078;12.108;2023-05-07T03:57:52;8.90;99.90
37242;DHT22;23135;51.078;12.108;2023-05-07T04:00:17;8.90;99.90
37242;DHT22;23135;51.078;12.108;2023-05-07T04:02:43;8.90;99.90
37242;DHT22;23135;51.078;12.108;2023-05-07T04:05:08;8.90;99.90
37242;DHT22;23135;51.078;12.108;2023-05-07T04:07:34;8.80;99.90
37242;DHT22;23135;51.078;12.108;2023-05-07T04:10:00;8.90;99.90
37242;DHT22;23135;51.078;12.108;2023-05-07T04:12:25;8.90;99.90
37242;DHT22;23135;51.078;12.108;2023-05-07T04:14:51;8.90;99.90
37242;DHT22;23135;51.078;12.108;2023-05-07T04:17:16;8.90;99.90
37242;DHT22;23135;51.078;12.108;2023-05-07T04:19:42;9.00;99.90
37242;DHT22;23135;51.078;12.108;2023-05-07T04:22:11;9.00;99.90
37242;DHT22;23135;51.078;12.108;2023-05-07T04:24:37;9.00;99.90
37242;DHT22;23135;51.078;12.108;2023-05-07T04:27:02;9.00;99.90
37242;DHT22;23135;51.078;12.108;2023-05-07T04:29:28;8.90;99.90
37242;DHT22;23135;51.078;12.108;2023-05-07T04:31:54;8.90;99.90
37242;DHT22;23135;51.078;12.108;2023-05-07T04:34:21;9.00;99.90
37242;DHT22;23135;51.078;12.108;2023-05-07T04:36:47;9.00;99.90
37242;DHT22;23135;51.078;12.108;2023-05-07T04:39:13;9.00;99.90
37242;DHT22;23135;51.078;12.108;2023-05-07T04:41:39;8.90;99.90
37242;DHT22;23135;51.078;12.108;2023-05-07T04:44:04;8.90;99.90
37242;DHT22;23135;51.078;12.108;2023-05-07T04:46:31;8.90;99.90
37242;DHT22;23135;51.078;12.108;2023-05-07T04:48:57;9.00;99.90
37242;DHT22;23135;51.078;12.108;2023-05-07T04:51:22;9.00;99.90
37242;DHT22;23135;51.078;12.108;2023-05-07T04:53:48;9.00;99.90
37242;DHT22;23135;51.078;12.108;2023-05-07T04:56:14;9.00;99.90
37242;DHT22;23135;51.078;12.108;2023-05-07T04:58:40;9.10;99.90
37242;DHT22;23135;51.078;12.108;2023-05-07T05:01:05;9.10;99.90
37242;DHT22;23135;51.078;12.108;2023-05-07T05:03:31;9.10;99.90
37242;DHT22;23135;51.078;12.108;2023-05-07T05:05:57;9.10;99.90
37242;DHT22;23135;51.078;12.108;2023-05-07T05:08:24;9.10;99.90
37242;DHT22;23135;51.078;12.108;2023-05-07T05:10:50;9.10;99.90
37242;DHT22;23135;51.078;12.108;2023-05-07T05:13:16;9.10;99.90
37242;DHT22;23135;51.078;12.108;2023-05-07T05:15:41;9.10;99.90
37242;DHT22;23135;51.078;12.108;2023-05-07T05:18:07;9.20;99.90
37242;DHT22;23135;51.078;12.108;2023-05-07T05:20:32;9.20;99.90
37242;DHT22;23135;51.078;12.108;2023-05-07T05:22:58;9.20;99.90
37242;DHT22;23135;51.078;12.108;2023-05-07T05:25:24;9.20;99.90
37242;DHT22;23135;51.078;12.108;2023-05-07T05:27:49;9.30;99.90
37242;DHT22;23135;51.078;12.108;2023-05-07T05:30:15;9.30;99.90
37242;DHT22;23135;51.078;12.108;2023-05-07T05:32:41;9.40;99.90
37242;DHT22;23135;51.078;12.108;2023-05-07T05:35:07;9.50;99.90
37242;DHT22;23135;51.078;12.108;2023-05-07T05:37:32;9.50;99.90
37242;DHT22;23135;51.078;12.108;2023-05-07T05:39:58;9.50;99.90
37242;DHT22;23135;51.078;12.108;2023-05-07T05:42:23;9.60;99.90
37242;DHT22;23135;51.078;12.108;2023-05-07T05:44:49;9.70;99.90
37242;DHT22;23135;51.078;12.108;2023-05-07T05:47:14;9.80;99.90
37242;DHT22;23135;51.078;12.108;2023-05-07T05:49:40;10.00;99.90
37242;DHT22;23135;51.078;12.108;2023-05-07T05:52:06;10.10;99.90
37242;DHT22;23135;51.078;12.108;2023-05-07T05:54:31;10.10;99.90
37242;DHT22;23135;51.078;12.108;2023-05-07T05:56:57;10.20;99.90
37242;DHT22;23135;51.078;12.108;2023-05-07T05:59:23;10.30;99.90
37242;DHT22;23135;51.078;12.108;2023-05-07T06:01:48;10.40;99.90
37242;DHT22;23135;51.078;12.108;2023-05-07T06:04:14;10.40;99.90
37242;DHT22;23135;51.078;12.108;2023-05-07T06:06:39;10.50;99.90
37242;DHT22;23135;51.078;12.108;2023-05-07T06:09:05;10.60;99.90
37242;DHT22;23135;51.078;12.108;2023-05-07T06:11:31;10.50;99.90
37242;DHT22;23135;51.078;12.108;2023-05-07T06:13:57;10.50;99.90
37242;DHT22;23135;51.078;12.108;2023-05-07T06:16:24;10.40;99.90
37242;DHT22;23135;51.078;12.108;2023-05-07T06:18:50;10.40;99.90
37242;DHT22;23135;51.078;12.108;2023-05-07T06:21:16;10.40;99.90
37242;DHT22;23135;51.078;12.108;2023-05-07T06:23:41;10.30;99.90
37242;DHT22;23135;51.078;12.108;2023-05-07T06:26:07;10.30;99.90
37242;DHT22;23135;51.078;12.108;2023-05-07T06:28:33;10.20;99.90
37242;DHT22;23135;51.078;12.108;2023-05-07T06:31:14;10.20;99.90
37242;DHT22;23135;51.078;12.108;2023-05-07T06:33:40;10.20;99.90
37242;DHT22;23135;51.078;12.108;2023-05-07T06:36:06;10.10;99.90
37242;DHT22;23135;51.078;12.108;2023-05-07T06:38:31;10.20;99.90
37242;DHT22;23135;51.078;12.108;2023-05-07T06:40:57;10.30;99.90
37242;DHT22;23135;51.078;12.108;2023-05-07T06:43:23;10.30;99.90
37242;DHT22;23135;51.078;12.108;2023-05-07T06:45:48;10.40;99.90
37242;DHT22;23135;51.078;12.108;2023-05-07T06:48:14;10.40;99.90
37242;DHT22;23135;51.078;12.108;2023-05-07T06:50:39;10.40;99.90
37242;DHT22;23135;51.078;12.108;2023-05-07T06:53:05;10.40;99.90
37242;DHT22;23135;51.078;12.108;2023-05-07T06:55:30;10.30;99.90
37242;DHT22;23135;51.078;12.108;2023-05-07T06:57:57;10.30;99.90
37242;DHT22;23135;51.078;12.108;2023-05-07T07:00:26;10.30;99.90
37242;DHT22;23135;51.078;12.108;2023-05-07T07:02:52;10.30;99.90
37242;DHT22;23135;51.078;12.108;2023-05-07T07:05:18;10.30;99.90
37242;DHT22;23135;51.078;12.108;2023-05-07T07:07:43;10.20;99.90
37242;DHT22;23135;51.078;12.108;2023-05-07T07:10:09;10.30;99.90
37242;DHT22;23135;51.078;12.108;2023-05-07T07:12:35;10.40;99.90
37242;DHT22;23135;51.078;12.108;2023-05-07T07:15:00;10.40;99.90
37242;DHT22;23135;51.078;12.108;2023-05-07T07:17:26;10.40;99.90
37242;DHT22;23135;51.078;12.108;2023-05-07T07:19:52;10.50;99.90
37242;DHT22;23135;51.078;12.108;2023-05-07T07:22:17;10.50;99.90
37242;DHT22;23135;51.078;12.108;2023-05-07T07:24:43;10.50;99.90
37242;DHT22;23135;51.078;12.108;2023-05-07T07:27:09;10.60;99.90
37242;DHT22;23135;51.078;12.108;2023-05-07T07:29:34;10.70;99.90
37242;DHT22;23135;51.078;12.108;2023-05-07T07:32:00;10.80;99.90
37242;DHT22;23135;51.078;12.108;2023-05-07T07:34:25;10.90;99.90
37242;DHT22;23135;51.078;12.108;2023-05-07T07:36:51;10.90;99.90
37242;DHT22;23135;51.078;12.108;2023-05-07T07:39:16;10.80;99.90
37242;DHT22;23135;51.078;12.108;2023-05-07T07:41:42;10.70;99.90
37242;DHT22;23135;51.078;12.108;2023-05-07T07:44:08;10.60;99.90
37242;DHT22;23135;51.078;12.108;2023-05-07T07:46:34;10.60;99.90
37242;DHT22;23135;51.078;12.108;2023-05-07T07:49:00;10.60;99.90
37242;DHT22;23135;51.078;12.108;2023-05-07T07:51:26;10.70;99.90
37242;DHT22;23135;51.078;12.108;2023-05-07T07:53:52;10.70;99.90
37242;DHT22;23135;51.078;12.108;2023-05-07T07:56:17;10.70;99.90
37242;DHT22;23135;51.078;12.108;2023-05-07T07:58:43;10.70;99.90
37242;DHT22;23135;51.078;12.108;2023-05-07T08:01:08;10.70;99.90
37242;DHT22;23135;51.078;12.108;2023-05-07T08:03:34;10.60;99.90
37242;DHT22;23135;51.078;12.108;2023-05-07T08:06:00;10.70;99.90
37242;DHT22;23135;51.078;12.108;2023-05-07T08:08:26;10.70;99.90
37242;DHT22;23135;51.078;12.108;2023-05-07T08:10:51;10.70;99.90
37242;DHT22;23135;51.078;12.108;2023-05-07T08:13:17;10.80;99.90
37242;DHT22;23135;51.078;12.108;2023-05-07T08:15:43;10.90;99.90
37242;DHT22;23135;51.078;12.108;2023-05-07T08:18:09;11.00;99.90
37242;DHT22;23135;51.078;12.108;2023-05-07T08:20:35;11.10;99.90
37242;DHT22;23135;51.078;12.108;2023-05-07T08:23:05;11.10;99.90
37242;DHT22;23135;51.078;12.108;2023-05-07T08:25:33;11.20;99.90
37242;DHT22;23135;51.078;12.108;2023-05-07T08:27:59;11.20;99.90
37242;DHT22;23135;51.078;12.108;2023-05-07T08:30:24;11.20;99.90
37242;DHT22;23135;51.078;12.108;2023-05-07T08:32:50;11.30;99.90
37242;DHT22;23135;51.078;12.108;2023-05-07T08:35:15;11.40;99.90
37242;DHT22;23135;51.078;12.108;2023-05-07T08:37:41;11.40;99.90
37242;DHT22;23135;51.078;12.108;2023-05-07T08:40:07;11.40;99.90
37242;DHT22;23135;51.078;12.108;2023-05-07T08:42:35;11.60;99.90
37242;DHT22;23135;51.078;12.108;2023-05-07T08:45:02;11.70;99.90
37242;DHT22;23135;51.078;12.108;2023-05-07T08:47:35;11.80;99.90
37242;DHT22;23135;51.078;12.108;2023-05-07T08:50:04;11.80;99.90
37242;DHT22;23135;51.078;12.108;2023-05-07T08:52:30;11.80;99.90
37242;DHT22;23135;51.078;12.108;2023-05-07T08:54:56;11.80;99.90
37242;DHT22;23135;51.078;12.108;2023-05-07T08:57:22;11.80;99.90
37242;DHT22;23135;51.078;12.108;2023-05-07T08:59:49;11.70;99.90
37242;DHT22;23135;51.078;12.108;2023-05-07T09:02:15;11.70;99.90
37242;DHT22;23135;51.078;12.108;2023-05-07T09:04:41;11.70;99.90
37242;DHT22;23135;51.078;12.108;2023-05-07T09:07:07;11.70;99.90
37242;DHT22;23135;51.078;12.108;2023-05-07T09:09:33;11.70;99.90
37242;DHT22;23135;51.078;12.108;2023-05-07T09:11:59;11.80;99.90
37242;DHT22;23135;51.078;12.108;2023-05-07T09:14:25;11.90;99.90
37242;DHT22;23135;51.078;12.108;2023-05-07T09:16:54;12.10;99.90
37242;DHT22;23135;51.078;12.108;2023-05-07T09:19:24;12.20;99.90
37242;DHT22;23135;51.078;12.108;2023-05-07T09:21:50;12.10;99.90
37242;DHT22;23135;51.078;12.108;2023-05-07T09:24:22;12.10;99.90
37242;DHT22;23135;51.078;12.108;2023-05-07T09:26:48;12.30;99.90
37242;DHT22;23135;51.078;12.108;2023-05-07T09:29:15;12.40;99.90
37242;DHT22;23135;51.078;12.108;2023-05-07T09:31:41;12.50;99.90
37242;DHT22;23135;51.078;12.108;2023-05-07T09:34:06;12.50;99.90
37242;DHT22;23135;51.078;12.108;2023-05-07T09:36:33;12.50;99.90
37242;DHT22;23135;51.078;12.108;2023-05-07T09:39:02;12.40;99.90
37242;DHT22;23135;51.078;12.108;2023-05-07T09:41:30;12.40;99.90
37242;DHT22;23135;51.078;12.108;2023-05-07T09:43:56;12.30;99.90
37242;DHT22;23135;51.078;12.108;2023-05-07T09:46:27;12.20;99.90
37242;DHT22;23135;51.078;12.108;2023-05-07T09:48:57;12.10;99.90
37242;DHT22;23135;51.078;12.108;2023-05-07T09:53:57;12.30;99.90
37242;DHT22;23135;51.078;12.108;2023-05-07T09:56:26;12.40;99.90
37242;DHT22;23135;51.078;12.108;2023-05-07T09:58:54;12.40;99.90
37242;DHT22;23135;51.078;12.108;2023-05-07T10:01:21;12.50;99.90
37242;DHT22;23135;51.078;12.108;2023-05-07T10:03:48;12.50;99.90
37242;DHT22;23135;51.078;12.108;2023-05-07T10:06:15;12.60;99.90
37242;DHT22;23135;51.078;12.108;2023-05-07T10:08:43;12.60;99.90
37242;DHT22;23135;51.078;12.108;2023-05-07T10:11:09;12.60;99.90
37242;DHT22;23135;51.078;12.108;2023-05-07T10:13:35;12.60;99.90
37242;DHT22;23135;51.078;12.108;2023-05-07T10:16:03;12.50;99.90
37242;DHT22;23135;51.078;12.108;2023-05-07T10:18:33;12.50;99.90
37242;DHT22;23135;51.078;12.108;2023-05-07T10:21:07;12.50;99.90
37242;DHT22;23135;51.078;12.108;2023-05-07T10:23:33;12.60;99.90
37242;DHT22;23135;51.078;12.108;2023-05-07T10:26:02;12.70;99.90
37242;DHT22;23135;51.078;12.108;2023-05-07T10:28:31;12.90;99.90
37242;DHT22;23135;51.078;12.108;2023-05-07T10:33:54;12.90;99.90
37242;DHT22;23135;51.078;12.108;2023-05-07T10:36:22;12.70;99.90
37242;DHT22;23135;51.078;12.108;2023-05-07T10:38:49;12.60;99.90
37242;DHT22;23135;51.078;12.108;2023-05-07T10:41:15;12.70;99.90
37242;DHT22;23135;51.078;12.108;2023-05-07T10:43:44;12.70;99.90
37242;DHT22;23135;51.078;12.108;2023-05-07T10:46:17;12.80;99.90
37242;DHT22;23135;51.078;12.108;2023-05-07T10:51:29;13.00;99.90
37242;DHT22;23135;51.078;12.108;2023-05-07T10:54:18;13.00;99.90
37242;DHT22;23135;51.078;12.108;2023-05-07T10:56:44;13.00;99.90
37242;DHT22;23135;51.078;12.108;2023-05-07T11:02:02;13.10;99.90
37242;DHT22;23135;51.078;12.108;2023-05-07T11:04:29;13.00;99.90
37242;DHT22;23135;51.078;12.108;2023-05-07T11:15:06;13.00;99.90
37242;DHT22;23135;51.078;12.108;2023-05-07T11:17:32;13.10;99.90
37242;DHT22;23135;51.078;12.108;2023-05-07T11:20:01;13.00;99.90
37242;DHT22;23135;51.078;12.108;2023-05-07T11:25:05;12.70;99.90
37242;DHT22;23135;51.078;12.108;2023-05-07T11:27:31;12.80;99.90
37242;DHT22;23135;51.078;12.108;2023-05-07T11:29:57;12.80;99.90
37242;DHT22;23135;51.078;12.108;2023-05-07T11:32:27;12.90;99.90
37242;DHT22;23135;51.078;12.108;2023-05-07T11:34:57;12.80;99.90
37242;DHT22;23135;51.078;12.108;2023-05-07T11:37:24;12.80;99.90
37242;DHT22;23135;51.078;12.108;2023-05-07T11:39:50;12.80;99.90
37242;DHT22;23135;51.078;12.108;2023-05-07T11:42:33;12.90;99.90
37242;DHT22;23135;51.078;12.108;2023-05-07T11:45:00;13.00;99.90
37242;DHT22;23135;51.078;12.108;2023-05-07T11:47:26;12.90;99.90
37242;DHT22;23135;51.078;12.108;2023-05-07T11:49:53;12.80;99.90
37242;DHT22;23135;51.078;12.108;2023-05-07T11:52:21;12.80;99.90
37242;DHT22;23135;51.078;12.108;2023-05-07T11:54:50;12.80;99.90
37242;DHT22;23135;51.078;12.108;2023-05-07T11:57:16;12.70;99.90
37242;DHT22;23135;51.078;12.108;2023-05-07T11:59:41;12.90;99.90
37242;DHT22;23135;51.078;12.108;2023-05-07T12:02:09;12.80;99.90
37242;DHT22;23135;51.078;12.108;2023-05-07T12:04:35;12.80;99.90
37242;DHT22;23135;51.078;12.108;2023-05-07T12:07:01;12.80;99.90
37242;DHT22;23135;51.078;12.108;2023-05-07T12:09:27;12.70;99.90
37242;DHT22;23135;51.078;12.108;2023-05-07T12:11:52;12.70;99.90
37242;DHT22;23135;51.078;12.108;2023-05-07T12:14:18;12.70;99.90
37242;DHT22;23135;51.078;12.108;2023-05-07T12:16:44;12.60;99.90
37242;DHT22;23135;51.078;12.108;2023-05-07T12:19:11;12.50;99.90
37242;DHT22;23135;51.078;12.108;2023-05-07T12:21:38;12.60;99.90
37242;DHT22;23135;51.078;12.108;2023-05-07T12:24:05;13.00;99.90
37242;DHT22;23135;51.078;12.108;2023-05-07T12:26:31;13.20;99.90
37242;DHT22;23135;51.078;12.108;2023-05-07T12:28:59;13.30;99.90
37242;DHT22;23135;51.078;12.108;2023-05-07T12:31:28;13.30;99.90
37242;DHT22;23135;51.078;12.108;2023-05-07T12:33:54;13.30;99.90
37242;DHT22;23135;51.078;12.108;2023-05-07T12:36:19;13.20;99.90
37242;DHT22;23135;51.078;12.108;2023-05-07T12:38:49;13.20;99.90
37242;DHT22;23135;51.078;12.108;2023-05-07T12:41:15;13.20;99.90
37242;DHT22;23135;51.078;12.108;2023-05-07T12:43:44;13.30;99.90
37242;DHT22;23135;51.078;12.108;2023-05-07T12:46:10;13.30;99.90
37242;DHT22;23135;51.078;12.108;2023-05-07T12:48:43;13.40;99.90
37242;DHT22;23135;51.078;12.108;2023-05-07T12:51:08;13.50;99.90
37242;DHT22;23135;51.078;12.108;2023-05-07T12:53:40;13.50;99.90
37242;DHT22;23135;51.078;12.108;2023-05-07T12:56:07;13.40;99.90
37242;DHT22;23135;51.078;12.108;2023-05-07T12:58:34;13.20;99.90
37242;DHT22;23135;51.078;12.108;2023-05-07T13:01:05;13.20;99.90
37242;DHT22;23135;51.078;12.108;2023-05-07T13:03:35;13.20;99.90
37242;DHT22;23135;51.078;12.108;2023-05-07T13:06:08;13.40;99.90
37242;DHT22;23135;51.078;12.108;2023-05-07T13:08:41;13.60;99.90
37242;DHT22;23135;51.078;12.108;2023-05-07T13:11:09;13.70;99.90
37242;DHT22;23135;51.078;12.108;2023-05-07T13:13:36;13.60;99.90
37242;DHT22;23135;51.078;12.108;2023-05-07T13:16:03;13.40;99.90
37242;DHT22;23135;51.078;12.108;2023-05-07T13:18:30;13.30;99.90
37242;DHT22;23135;51.078;12.108;2023-05-07T13:20:56;13.50;99.90
37242;DHT22;23135;51.078;12.108;2023-05-07T13:23:21;13.70;99.90
37242;DHT22;23135;51.078;12.108;2023-05-07T13:25:48;13.80;99.90
37242;DHT22;23135;51.078;12.108;2023-05-07T13:28:14;13.90;99.90
37242;DHT22;23135;51.078;12.108;2023-05-07T13:30:40;14.10;99.90
37242;DHT22;23135;51.078;12.108;2023-05-07T13:33:06;14.40;99.90
37242;DHT22;23135;51.078;12.108;2023-05-07T13:35:32;14.60;99.90
37242;DHT22;23135;51.078;12.108;2023-05-07T13:37:58;14.60;99.90
37242;DHT22;23135;51.078;12.108;2023-05-07T13:40:24;14.50;99.90
37242;DHT22;23135;51.078;12.108;2023-05-07T13:42:50;14.40;99.90
37242;DHT22;23135;51.078;12.108;2023-05-07T13:45:19;14.40;99.90
37242;DHT22;23135;51.078;12.108;2023-05-07T13:47:46;14.10;99.90
37242;DHT22;23135;51.078;12.108;2023-05-07T13:50:12;14.00;99.90
37242;DHT22;23135;51.078;12.108;2023-05-07T13:52:42;14.00;99.90
37242;DHT22;23135;51.078;12.108;2023-05-07T13:55:09;14.00;99.90
37242;DHT22;23135;51.078;12.108;2023-05-07T13:57:36;14.00;99.90
37242;DHT22;23135;51.078;12.108;2023-05-07T14:00:03;14.10;99.90
37242;DHT22;23135;51.078;12.108;2023-05-07T14:02:30;14.20;99.90
37242;DHT22;23135;51.078;12.108;2023-05-07T14:04:56;14.20;99.90
37242;DHT22;23135;51.078;12.108;2023-05-07T14:07:21;14.20;99.90
37242;DHT22;23135;51.078;12.108;2023-05-07T14:09:47;14.20;99.90
37242;DHT22;23135;51.078;12.108;2023-05-07T14:12:12;14.30;99.90
37242;DHT22;23135;51.078;12.108;2023-05-07T14:14:38;14.50;99.90
37242;DHT22;23135;51.078;12.108;2023-05-07T14:17:03;14.60;99.90
37242;DHT22;23135;51.078;12.108;2023-05-07T14:19:29;14.90;99.90
37242;DHT22;23135;51.078;12.108;2023-05-07T14:21:54;15.10;99.90
37242;DHT22;23135;51.078;12.108;2023-05-07T14:24:20;15.10;99.90
37242;DHT22;23135;51.078;12.108;2023-05-07T14:26:46;15.00;99.90
37242;DHT22;23135;51.078;12.108;2023-05-07T14:29:11;15.10;99.90
37242;DHT22;23135;51.078;12.108;2023-05-07T14:31:37;15.00;99.90
37242;DHT22;23135;51.078;12.108;2023-05-07T14:34:03;14.80;99.90
37242;DHT22;23135;51.078;12.108;2023-05-07T14:36:28;14.50;99.90
37242;DHT22;23135;51.078;12.108;2023-05-07T14:38:55;14.30;99.90
37242;DHT22;23135;51.078;12.108;2023-05-07T14:41:22;14.40;99.90
37242;DHT22;23135;51.078;12.108;2023-05-07T14:43:47;14.20;99.90
37242;DHT22;23135;51.078;12.108;2023-05-07T14:46:16;14.10;99.90
37242;DHT22;23135;51.078;12.108;2023-05-07T14:48:44;14.10;99.90
37242;DHT22;23135;51.078;12.108;2023-05-07T14:51:10;14.40;99.90
37242;DHT22;23135;51.078;12.108;2023-05-07T14:53:36;14.80;99.90
37242;DHT22;23135;51.078;12.108;2023-05-07T14:56:02;15.30;99.90
37242;DHT22;23135;51.078;12.108;2023-05-07T14:58:28;15.50;99.90
37242;DHT22;23135;51.078;12.108;2023-05-07T15:00:54;15.30;99.90
37242;DHT22;23135;51.078;12.108;2023-05-07T15:03:20;14.80;99.90
37242;DHT22;23135;51.078;12.108;2023-05-07T15:05:45;14.50;99.90
37242;DHT22;23135;51.078;12.108;2023-05-07T15:08:11;14.30;99.90
37242;DHT22;23135;51.078;12.108;2023-05-07T15:10:37;14.40;99.90
37242;DHT22;23135;51.078;12.108;2023-05-07T15:13:10;14.50;99.90
37242;DHT22;23135;51.078;12.108;2023-05-07T15:15:36;14.50;99.90
37242;DHT22;23135;51.078;12.108;2023-05-07T15:18:02;14.30;99.90
37242;DHT22;23135;51.078;12.108;2023-05-07T15:20:28;14.30;99.90
37242;DHT22;23135;51.078;12.108;2023-05-07T15:22:53;14.30;99.90
37242;DHT22;23135;51.078;12.108;2023-05-07T15:25:19;14.50;99.90
37242;DHT22;23135;51.078;12.108;2023-05-07T15:27:45;14.60;99.90
37242;DHT22;23135;51.078;12.108;2023-05-07T15:30:12;14.60;99.90
37242;DHT22;23135;51.078;12.108;2023-05-07T15:32:37;14.50;99.90
37242;DHT22;23135;51.078;12.108;2023-05-07T15:35:04;14.40;99.90
37242;DHT22;23135;51.078;12.108;2023-05-07T15:37:30;14.50;99.90